createdAt,value
2019-03-22T00:00:41.336Z,4.70
2019-03-22T00:03:13.915Z,8.63
2019-03-22T00:05:46.864Z,6.92
2019-03-22T00:08:20.069Z,9.80
2019-03-22T00:10:52.905Z,5.95
2019-03-22T00:13:25.817Z,11.33
2019-03-22T00:15:58.832Z,6.15
2019-03-22T00:18:31.850Z,6.20
2019-03-22T00:21:04.852Z,4.70
2019-03-22T00:23:37.819Z,4.35
2019-03-22T00:26:10.866Z,6.83
2019-03-22T00:28:44.021Z,5.65
2019-03-22T00:31:17.325Z,5.90
2019-03-22T00:33:49.863Z,8.93
2019-03-22T00:36:23.320Z,5.55
2019-03-22T00:38:55.921Z,5.33
2019-03-22T00:41:28.858Z,5.55
2019-03-22T00:44:01.766Z,7.10
2019-03-22T00:49:06.005Z,5.03
2019-03-22T00:51:38.857Z,6.42
2019-03-22T00:54:11.785Z,4.17
2019-03-22T00:56:44.389Z,4.90
2019-03-22T00:59:17.315Z,6.37
2019-03-22T01:01:49.986Z,4.45
2019-03-22T01:04:23.318Z,4.45
2019-03-22T01:06:55.913Z,4.28
2019-03-22T01:09:28.917Z,6.10
2019-03-22T01:12:01.912Z,3.92
2019-03-22T01:14:34.852Z,4.80
2019-03-22T01:17:07.764Z,6.80
2019-03-22T01:22:12.137Z,8.40
2019-03-22T01:24:44.917Z,7.58
2019-03-22T01:27:17.870Z,5.65
2019-03-22T01:29:50.829Z,5.92
2019-03-22T01:32:23.870Z,8.68
2019-03-22T01:34:56.878Z,6.28
2019-03-22T01:37:30.050Z,8.63
2019-03-22T01:40:03.019Z,6.87
2019-03-22T01:42:36.482Z,7.10
2019-03-22T01:45:10.765Z,8.33
2019-03-22T01:50:15.808Z,5.50
2019-03-22T01:52:48.777Z,5.78
2019-03-22T01:57:54.154Z,6.17
2019-03-22T02:00:27.010Z,8.55
2019-03-22T02:02:59.863Z,6.58
2019-03-22T02:05:32.765Z,8.40
2019-03-22T02:10:37.837Z,7.33
2019-03-22T02:13:10.806Z,5.67
2019-03-22T02:15:43.687Z,6.40
2019-03-22T02:20:48.019Z,5.47
2019-03-22T02:23:20.871Z,6.35
2019-03-22T02:25:53.856Z,8.83
2019-03-22T02:28:26.886Z,8.45
2019-03-22T02:31:00.313Z,6.67
2019-03-22T02:33:32.959Z,7.25
2019-03-22T02:36:05.834Z,6.72
2019-03-22T02:38:38.837Z,5.03
2019-03-22T02:41:11.782Z,5.25
2019-03-22T02:43:44.882Z,9.73
2019-03-22T02:46:17.890Z,5.75
2019-03-22T02:48:50.987Z,7.85
2019-03-22T02:51:23.880Z,5.65
2019-03-22T02:53:56.873Z,6.67
2019-03-22T02:56:29.845Z,8.60
2019-03-22T02:59:02.850Z,9.13
2019-03-22T03:01:35.783Z,6.75
2019-03-22T03:06:40.319Z,8.20
2019-03-22T03:09:12.905Z,6.80
2019-03-22T03:11:45.810Z,10.03
2019-03-22T03:14:18.758Z,10.50
2019-03-22T03:19:23.432Z,9.18
2019-03-22T03:21:56.026Z,5.20
2019-03-22T03:24:29.015Z,7.97
2019-03-22T03:27:01.874Z,9.80
2019-03-22T03:29:34.855Z,5.55
2019-03-22T03:32:07.821Z,5.08
2019-03-22T03:34:40.859Z,7.20
2019-03-22T03:37:13.793Z,6.15
2019-03-22T03:42:18.326Z,5.58
2019-03-22T03:44:50.966Z,7.62
2019-03-22T03:47:23.895Z,11.00
2019-03-22T03:49:56.885Z,9.73
2019-03-22T03:52:31.519Z,5.62
2019-03-22T03:55:04.002Z,6.60
2019-03-22T03:57:36.880Z,5.83
2019-03-22T04:00:10.742Z,4.60
2019-03-22T04:05:14.995Z,7.10
2019-03-22T04:07:48.026Z,8.93
2019-03-22T04:10:20.895Z,7.25
2019-03-22T04:12:53.864Z,8.88
2019-03-22T04:15:26.884Z,10.15
2019-03-22T04:18:00.319Z,6.10
2019-03-22T04:20:32.857Z,9.20
2019-03-22T04:23:05.796Z,5.85
2019-03-22T04:25:38.791Z,5.83
2019-03-22T04:28:11.421Z,8.20
2019-03-22T04:30:43.910Z,7.42
2019-03-22T04:33:16.835Z,7.65
2019-03-22T04:35:49.850Z,9.93
2019-03-22T04:39:57.829Z,8.87
2019-03-22T04:42:30.811Z,8.00
2019-03-22T04:45:03.748Z,9.18
2019-03-22T04:50:08.910Z,7.40
2019-03-22T04:52:41.987Z,8.05
2019-03-22T04:55:14.867Z,5.85
2019-03-22T04:57:47.816Z,9.03
2019-03-22T05:00:20.782Z,7.60
2019-03-22T05:02:53.940Z,11.20
2019-03-22T05:05:26.886Z,7.87
2019-03-22T05:07:59.837Z,10.72
2019-03-22T05:10:33.306Z,12.73
2019-03-22T05:13:05.900Z,7.05
2019-03-22T05:18:16.441Z,8.73
2019-03-22T05:20:49.898Z,6.80
2019-03-22T05:23:23.378Z,10.78
2019-03-22T05:25:56.872Z,8.45
2019-03-22T05:28:33.394Z,7.47
2019-03-22T05:31:59.929Z,8.53
2019-03-22T05:34:33.493Z,10.35
2019-03-22T05:37:06.555Z,7.37
2019-03-22T05:39:39.881Z,7.08
2019-03-22T05:42:13.893Z,9.63
2019-03-22T05:44:47.324Z,10.08
2019-03-22T05:47:20.858Z,11.08
2019-03-22T05:49:54.341Z,7.33
2019-03-22T05:52:27.934Z,5.22
2019-03-22T05:55:01.344Z,5.83
2019-03-22T05:57:34.832Z,5.37
2019-03-22T06:00:11.142Z,7.12
2019-03-22T06:02:44.549Z,5.92
2019-03-22T06:05:18.350Z,5.72
2019-03-22T06:07:51.829Z,5.60
2019-03-22T06:10:25.329Z,6.05
2019-03-22T06:12:58.429Z,5.28
2019-03-22T06:15:31.890Z,5.87
2019-03-22T06:18:05.374Z,5.78
2019-03-22T06:20:38.887Z,5.53
2019-03-22T06:23:12.490Z,5.50
2019-03-22T06:25:45.869Z,5.33
2019-03-22T06:28:19.320Z,4.60
2019-03-22T06:30:52.859Z,4.42
2019-03-22T06:33:26.332Z,6.87
2019-03-22T06:36:00.328Z,5.05
2019-03-22T06:38:33.989Z,6.60
2019-03-22T06:41:07.370Z,4.37
2019-03-22T06:43:40.339Z,4.70
2019-03-22T06:46:13.828Z,4.53
2019-03-22T06:48:47.322Z,4.85
2019-03-22T06:51:20.609Z,4.92
2019-03-22T06:53:54.317Z,4.67
2019-03-22T06:56:27.799Z,4.78
2019-03-22T06:59:01.379Z,4.65
2019-03-22T07:01:34.863Z,4.80
2019-03-22T07:04:08.320Z,3.92
2019-03-22T07:06:41.870Z,4.45
2019-03-22T07:09:15.395Z,4.42
2019-03-22T07:11:48.879Z,4.62
2019-03-22T07:14:23.018Z,4.50
2019-03-22T07:16:58.927Z,4.33
2019-03-22T07:19:31.909Z,4.17
2019-03-22T07:22:05.734Z,5.50
2019-03-22T07:27:11.451Z,5.22
2019-03-22T07:29:44.838Z,4.58
2019-03-22T07:32:18.448Z,5.10
2019-03-22T07:34:52.289Z,11.00
2019-03-22T07:37:25.945Z,5.12
2019-03-22T07:39:59.944Z,4.50
2019-03-22T07:42:33.816Z,4.53
2019-03-22T07:45:07.410Z,5.90
2019-03-22T07:47:40.844Z,4.75
2019-03-22T07:50:15.335Z,5.45
2019-03-22T07:52:48.835Z,5.72
2019-03-22T07:55:22.590Z,4.12
2019-03-22T08:03:02.877Z,4.45
2019-03-22T08:05:38.285Z,4.97
2019-03-22T08:08:11.752Z,5.00
2019-03-22T08:10:44.716Z,7.80
2019-03-22T08:13:17.764Z,4.70
2019-03-22T08:18:22.332Z,4.80
2019-03-22T08:20:57.500Z,4.50
2019-03-22T08:23:30.333Z,6.67
2019-03-22T08:26:02.991Z,7.87
2019-03-22T08:28:36.037Z,9.08
2019-03-22T08:31:09.053Z,6.08
2019-03-22T08:33:56.320Z,5.67
2019-03-22T08:36:29.336Z,7.60
2019-03-22T08:39:01.921Z,5.95
2019-03-22T08:41:34.862Z,13.43
2019-03-22T08:44:08.306Z,13.28
2019-03-22T08:46:40.974Z,12.18
2019-03-22T08:49:13.931Z,6.42
2019-03-22T08:51:49.643Z,16.00
2019-03-22T08:54:22.081Z,8.98
2019-03-22T08:56:54.868Z,15.65
2019-03-22T08:59:27.830Z,9.13
2019-03-22T09:02:00.756Z,6.00
2019-03-22T09:04:33.746Z,9.80
2019-03-22T09:07:07.050Z,8.93
2019-03-22T09:09:41.559Z,8.33
2019-03-22T09:12:14.340Z,17.40
2019-03-22T09:14:46.993Z,9.40
2019-03-22T09:17:21.053Z,5.70
2019-03-22T09:19:53.822Z,8.63
2019-03-22T09:22:27.301Z,8.30
2019-03-22T09:24:59.891Z,10.30
2019-03-22T09:27:32.851Z,10.03
2019-03-22T09:30:06.301Z,15.85
2019-03-22T09:32:39.035Z,22.90
2019-03-22T09:35:12.754Z,13.62
2019-03-22T09:40:17.061Z,17.05
2019-03-22T09:42:52.808Z,6.53
2019-03-22T09:45:24.824Z,11.22
2019-03-22T09:47:57.876Z,16.67
2019-03-22T09:50:32.783Z,13.72
2019-03-22T09:53:05.842Z,15.35
2019-03-22T09:55:38.882Z,20.17
2019-03-22T09:58:11.844Z,17.85
2019-03-22T10:00:48.270Z,14.45
2019-03-22T10:03:19.829Z,15.50
2019-03-22T10:05:52.769Z,16.65
2019-03-22T10:10:57.335Z,10.70
2019-03-22T10:13:30.003Z,19.48
2019-03-22T10:16:03.312Z,11.22
2019-03-22T10:18:36.985Z,14.47
2019-03-22T10:21:21.911Z,8.00
2019-03-22T10:23:44.322Z,6.62
2019-03-22T10:26:16.993Z,10.53
2019-03-22T10:28:49.849Z,18.92
2019-03-22T10:31:35.995Z,14.33
2019-03-22T10:33:57.116Z,20.17
2019-03-22T10:36:29.911Z,21.75
2019-03-22T10:39:03.360Z,8.85
2019-03-22T10:41:59.714Z,9.78
2019-03-22T10:52:15.462Z,11.65
2019-03-22T10:54:48.065Z,6.83
2019-03-22T10:57:21.300Z,4.87
2019-03-22T10:59:53.969Z,7.35
2019-03-22T11:02:26.884Z,7.67
2019-03-22T11:05:02.076Z,12.85
2019-03-22T11:07:34.794Z,6.45
2019-03-22T11:10:11.826Z,24.18
2019-03-22T11:12:44.831Z,6.12
2019-03-22T11:15:17.788Z,11.30
2019-03-22T11:17:50.769Z,12.53
2019-03-22T11:20:23.453Z,21.00
2019-03-22T11:22:56.056Z,6.30
2019-03-22T11:25:29.048Z,18.98
2019-03-22T11:28:01.849Z,6.60
2019-03-22T11:30:34.841Z,4.60
2019-03-22T11:33:07.744Z,18.02
2019-03-22T11:38:12.370Z,8.00
2019-03-22T11:40:47.001Z,4.35
2019-03-22T11:43:19.888Z,6.33
2019-03-22T11:45:52.848Z,4.65
2019-03-22T11:48:25.748Z,6.00
2019-03-22T11:53:29.868Z,5.92
2019-03-22T11:56:02.816Z,19.75
2019-03-22T11:58:35.415Z,4.60
2019-03-22T12:01:07.990Z,23.85
2019-03-22T12:03:41.462Z,21.75
2019-03-22T12:06:14.007Z,12.50
2019-03-22T12:08:46.898Z,5.62
2019-03-22T12:11:19.811Z,12.10
2019-03-22T12:13:52.994Z,14.70
2019-03-22T12:16:25.885Z,11.50
2019-03-22T12:18:58.835Z,8.70
2019-03-22T12:21:31.803Z,17.77
2019-03-22T12:24:04.781Z,6.60
2019-03-22T12:29:09.339Z,6.72
2019-03-22T12:31:41.887Z,8.25
2019-03-22T12:34:14.809Z,24.15
2019-03-22T12:36:47.765Z,4.50
2019-03-22T12:41:51.896Z,4.05
2019-03-22T12:44:24.836Z,4.30
2019-03-22T12:46:57.795Z,4.05
2019-03-22T12:49:31.980Z,5.50
2019-03-22T12:52:05.060Z,11.28
2019-03-22T12:54:38.070Z,22.77
2019-03-22T12:57:10.884Z,6.53
2019-03-22T12:59:43.847Z,15.75
2019-03-22T13:02:16.814Z,23.07
2019-03-22T13:04:49.786Z,15.70
2019-03-22T13:09:54.306Z,9.75
2019-03-22T13:12:26.988Z,10.50
2019-03-22T13:15:00.330Z,13.05
2019-03-22T13:17:32.976Z,12.90
2019-03-22T13:20:06.814Z,7.78
2019-03-22T13:22:39.797Z,19.55
2019-03-22T13:25:13.750Z,5.72
2019-03-22T13:30:34.773Z,7.08
2019-03-22T13:35:39.816Z,20.05
2019-03-22T13:38:12.832Z,12.37
2019-03-22T13:40:45.769Z,19.65
2019-03-22T13:43:18.638Z,8.30
2019-03-22T13:45:51.304Z,4.78
2019-03-22T13:48:23.891Z,4.67
2019-03-22T13:50:56.867Z,4.45
2019-03-22T13:53:30.380Z,5.78
2019-03-22T13:56:03.338Z,4.22
2019-03-22T13:58:38.737Z,17.52
2019-03-22T14:03:43.514Z,19.12
2019-03-22T14:06:16.740Z,15.58
2019-03-22T14:11:20.911Z,10.38
2019-03-22T14:13:53.852Z,6.12
2019-03-22T14:16:26.787Z,23.85
2019-03-22T14:19:00.124Z,13.20
2019-03-22T14:21:32.982Z,8.45
2019-03-22T14:24:05.881Z,24.02
2019-03-22T14:26:38.891Z,5.10
2019-03-22T14:29:11.863Z,5.17
2019-03-22T14:31:44.785Z,18.42
2019-03-22T14:36:49.284Z,26.35
2019-03-22T14:39:21.984Z,11.48
2019-03-22T14:41:54.857Z,17.92
2019-03-22T14:44:28.374Z,5.42
2019-03-22T14:47:01.126Z,6.87
2019-03-22T14:49:34.024Z,8.83
2019-03-22T14:52:06.889Z,6.70
2019-03-22T14:54:40.273Z,15.83
2019-03-22T14:57:12.848Z,8.00
2019-03-22T14:59:46.291Z,11.90
2019-03-22T15:02:18.869Z,22.35
2019-03-22T15:04:54.392Z,17.52
2019-03-22T15:07:26.880Z,6.20
2019-03-22T15:09:59.874Z,9.50
2019-03-22T15:12:32.799Z,6.42
2019-03-22T15:15:25.714Z,5.40
2019-03-22T15:21:15.307Z,6.35
2019-03-22T15:24:05.770Z,11.75
2019-03-22T15:29:59.613Z,5.50
2019-03-22T15:32:47.307Z,7.10
2019-03-22T15:35:39.837Z,13.48
2019-03-22T15:38:35.602Z,9.90
2019-03-22T15:41:08.829Z,18.62
2019-03-22T15:44:04.233Z,32.88
2019-03-22T15:46:36.995Z,28.83
2019-03-22T15:49:10.310Z,24.50
2019-03-22T15:51:42.910Z,21.45
2019-03-22T15:54:15.829Z,14.60
2019-03-22T15:56:48.782Z,23.60
2019-03-22T15:59:21.752Z,22.30
2019-03-22T16:01:54.589Z,21.90
2019-03-22T16:04:27.304Z,20.77
2019-03-22T16:07:00.040Z,22.50
2019-03-22T16:09:33.322Z,21.37
2019-03-22T16:13:04.309Z,19.20
2019-03-22T16:15:37.619Z,14.43
2019-03-22T16:18:10.292Z,20.88
2019-03-22T16:20:42.909Z,23.32
2019-03-22T16:23:16.294Z,20.80
2019-03-22T16:25:49.262Z,20.92
2019-03-22T16:28:21.991Z,21.02
2019-03-22T16:30:54.850Z,15.35
2019-03-22T16:33:27.821Z,10.35
2019-03-22T16:36:00.877Z,16.07
2019-03-22T16:38:34.717Z,19.05
2019-03-22T16:43:39.268Z,7.70
2019-03-22T16:46:14.084Z,9.55
2019-03-22T16:48:46.529Z,11.90
2019-03-22T16:51:19.486Z,11.55
2019-03-22T16:53:52.334Z,20.70
2019-03-22T16:56:25.042Z,12.80
2019-03-22T16:58:58.041Z,15.63
2019-03-22T17:01:30.898Z,22.45
2019-03-22T17:04:04.615Z,11.18
2019-03-22T17:06:37.961Z,11.40
2019-03-22T17:09:11.292Z,13.93
2019-03-22T17:11:44.301Z,10.63
2019-03-22T17:14:16.889Z,13.15
2019-03-22T17:16:50.765Z,20.65
2019-03-22T17:21:55.292Z,10.72
2019-03-22T17:24:27.879Z,15.30
2019-03-22T17:27:00.820Z,14.75
2019-03-22T17:29:33.727Z,15.85
2019-03-22T17:32:06.351Z,24.17
2019-03-22T17:34:38.973Z,21.97
2019-03-22T17:37:11.801Z,19.77
2019-03-22T17:39:44.714Z,18.15
2019-03-22T17:42:17.554Z,26.10
2019-03-22T17:44:50.261Z,24.43
2019-03-22T17:47:23.046Z,24.87
2019-03-22T17:49:55.864Z,33.15
2019-03-22T17:52:28.810Z,28.73
2019-03-22T17:55:01.735Z,22.35
2019-03-22T18:00:06.352Z,12.40
2019-03-22T18:02:38.765Z,9.23
2019-03-22T18:05:11.899Z,10.55
2019-03-22T18:07:44.842Z,10.85
2019-03-22T18:10:18.003Z,10.03
2019-03-22T18:12:50.853Z,9.28
2019-03-22T18:15:23.837Z,16.27
2019-03-22T18:17:56.809Z,14.03
2019-03-22T18:20:29.771Z,11.93
2019-03-22T18:25:34.433Z,10.88
2019-03-22T18:28:06.996Z,20.27
2019-03-22T18:30:39.842Z,12.65
2019-03-22T18:33:12.976Z,18.40
2019-03-22T18:35:46.292Z,20.20
2019-03-22T18:38:18.997Z,20.43
2019-03-22T18:40:51.867Z,10.60
2019-03-22T18:43:25.310Z,17.07
2019-03-22T18:45:58.636Z,14.10
2019-03-22T18:51:03.393Z,10.50
2019-03-22T18:53:36.003Z,18.98
2019-03-22T18:56:08.976Z,18.90
2019-03-22T18:58:41.897Z,18.35
2019-03-22T19:01:15.059Z,18.50
2019-03-22T19:03:47.878Z,15.28
2019-03-22T19:06:21.858Z,16.67
2019-03-22T19:08:54.866Z,13.58
2019-03-22T19:11:27.818Z,18.92
2019-03-22T19:14:00.772Z,14.80
2019-03-22T19:19:05.306Z,10.95
2019-03-22T19:21:38.374Z,10.58
2019-03-22T19:24:11.259Z,13.53
2019-03-22T19:26:44.002Z,11.18
2019-03-22T19:29:16.868Z,12.58
2019-03-22T19:31:50.121Z,14.87
2019-03-22T19:34:22.889Z,13.75
2019-03-22T19:36:55.849Z,13.65
2019-03-22T19:39:28.865Z,13.53
2019-03-22T19:42:01.872Z,10.65
2019-03-22T19:44:34.800Z,14.10
2019-03-22T19:47:07.827Z,10.93
2019-03-22T19:49:40.797Z,17.87
2019-03-22T19:52:13.744Z,20.08
2019-03-22T19:57:18.056Z,17.05
2019-03-22T19:59:51.070Z,21.55
2019-03-22T20:02:24.047Z,25.10
2019-03-22T20:05:04.426Z,21.80
2019-03-22T20:07:31.754Z,20.88
2019-03-22T20:12:36.914Z,30.25
2019-03-22T20:15:10.301Z,18.02
2019-03-22T20:17:42.990Z,16.70
2019-03-22T20:20:15.878Z,19.60
2019-03-22T20:22:49.003Z,26.65
2019-03-22T20:25:21.906Z,9.65
2019-03-22T20:27:54.830Z,8.90
2019-03-22T20:30:27.770Z,10.40
2019-03-22T20:33:00.980Z,13.28
2019-03-22T20:35:34.316Z,12.28
2019-03-22T20:38:06.913Z,9.08
2019-03-22T20:40:39.850Z,6.92
2019-03-22T20:43:12.790Z,7.20
2019-03-22T20:48:17.865Z,6.72
2019-03-22T20:50:51.010Z,6.00
2019-03-22T20:53:23.855Z,11.80
2019-03-22T20:55:56.844Z,12.05
2019-03-22T20:58:29.783Z,9.08
2019-03-22T21:03:34.001Z,6.42
2019-03-22T21:06:06.887Z,6.70
2019-03-22T21:08:39.865Z,11.90
2019-03-22T21:11:12.843Z,7.67
2019-03-22T21:13:45.785Z,6.47
2019-03-22T21:18:50.317Z,6.72
2019-03-22T21:21:28.001Z,10.25
2019-03-22T21:23:57.790Z,9.30
2019-03-22T21:29:02.313Z,6.40
2019-03-22T21:31:35.029Z,6.65
2019-03-22T21:34:08.375Z,6.12
2019-03-22T21:36:41.320Z,5.62
2019-03-22T21:39:14.326Z,11.00
2019-03-22T21:41:47.366Z,9.50
2019-03-22T21:44:20.076Z,12.73
2019-03-22T21:46:54.379Z,13.55
2019-03-22T21:49:27.372Z,7.58
2019-03-22T21:52:00.296Z,9.75
2019-03-22T21:54:33.285Z,6.53
2019-03-22T21:57:06.494Z,6.87
2019-03-22T21:59:39.813Z,8.48
2019-03-22T22:02:12.993Z,6.53
2019-03-22T22:04:46.839Z,12.65
2019-03-22T22:07:20.318Z,9.25
2019-03-22T22:09:53.305Z,6.42
2019-03-22T22:12:26.781Z,7.37
2019-03-22T22:15:00.070Z,7.95
2019-03-22T22:17:33.874Z,6.12
2019-03-22T22:20:07.320Z,7.05
2019-03-22T22:22:40.906Z,6.37
2019-03-22T22:25:14.668Z,7.05
2019-03-22T22:27:47.821Z,6.75
2019-03-22T22:30:20.995Z,6.30
2019-03-22T22:32:54.319Z,5.80
2019-03-22T22:35:27.316Z,6.72
2019-03-22T22:38:03.140Z,7.00
2019-03-22T22:40:36.324Z,6.95
2019-03-22T22:43:09.537Z,7.20
2019-03-22T22:45:43.312Z,6.95
2019-03-22T22:48:16.606Z,6.62
2019-03-22T22:50:50.307Z,7.33
2019-03-22T22:53:23.282Z,6.47
2019-03-22T22:55:56.838Z,6.10
2019-03-22T22:58:30.079Z,6.28
2019-03-22T23:01:03.326Z,6.30
2019-03-22T23:03:36.919Z,8.03
2019-03-22T23:06:10.053Z,6.03
2019-03-22T23:08:43.073Z,5.78
2019-03-22T23:11:16.446Z,7.03
2019-03-22T23:13:49.325Z,14.23
2019-03-22T23:16:22.310Z,7.45
2019-03-22T23:18:55.833Z,7.40
2019-03-22T23:21:28.757Z,7.97
2019-03-22T23:26:33.518Z,6.00
2019-03-22T23:29:06.326Z,7.00
2019-03-22T23:31:39.064Z,6.72
2019-03-22T23:34:11.986Z,6.22
2019-03-22T23:36:44.906Z,7.70
2019-03-22T23:39:17.903Z,6.53
2019-03-22T23:41:50.830Z,6.50
2019-03-22T23:44:23.921Z,6.78
2019-03-22T23:46:56.963Z,7.03
2019-03-22T23:49:30.026Z,7.45
2019-03-22T23:52:03.317Z,6.03
2019-03-22T23:54:36.316Z,6.12
2019-03-22T23:57:09.117Z,6.60
2019-03-22T23:59:42.314Z,6.37
